createdAt,value
2023-01-19T00:00:42.545Z,41.50
2023-01-19T00:01:42.437Z,34.50
2023-01-19T00:02:42.454Z,38.50
2023-01-19T00:03:42.402Z,35.60
2023-01-19T00:04:42.403Z,39.40
2023-01-19T00:05:42.395Z,35.70
2023-01-19T00:06:42.464Z,38.20
2023-01-19T00:07:42.416Z,36.80
2023-01-19T00:08:42.384Z,33.90
2023-01-19T00:09:42.376Z,40.60
2023-01-19T00:10:42.397Z,36.00
2023-01-19T00:11:42.381Z,36.80
2023-01-19T00:12:42.409Z,42.80
2023-01-19T00:13:42.378Z,36.80
2023-01-19T00:14:42.380Z,35.60
2023-01-19T00:15:42.330Z,36.90
2023-01-19T00:16:42.335Z,38.50
2023-01-19T00:17:42.360Z,38.80
2023-01-19T00:18:42.349Z,36.40
2023-01-19T00:19:42.344Z,37.70
2023-01-19T00:20:42.308Z,38.00
2023-01-19T00:21:42.298Z,35.50
2023-01-19T00:22:42.307Z,41.10
2023-01-19T00:23:42.282Z,35.60
2023-01-19T00:24:42.334Z,37.00
2023-01-19T00:25:42.490Z,42.90
2023-01-19T00:26:42.260Z,40.20
2023-01-19T00:27:42.245Z,34.50
2023-01-19T00:28:42.280Z,40.20
2023-01-19T00:29:42.255Z,40.90
2023-01-19T00:30:42.325Z,41.90
2023-01-19T00:31:42.299Z,38.30
2023-01-19T00:32:42.247Z,42.90
2023-01-19T00:33:42.204Z,40.00
2023-01-19T00:34:42.205Z,42.70
2023-01-19T00:35:42.239Z,47.60
2023-01-19T00:36:42.446Z,45.50
2023-01-19T00:37:42.197Z,48.80
2023-01-19T00:38:42.222Z,48.50
2023-01-19T00:39:42.162Z,44.20
2023-01-19T00:40:42.174Z,45.20
2023-01-19T00:41:42.242Z,51.60
2023-01-19T00:42:42.223Z,51.20
2023-01-19T00:43:42.143Z,51.20
2023-01-19T00:44:42.154Z,50.70
2023-01-19T00:45:42.170Z,48.20
2023-01-19T00:46:42.129Z,40.80
2023-01-19T00:47:42.138Z,47.50
2023-01-19T00:48:42.165Z,48.90
2023-01-19T00:49:42.121Z,47.20
2023-01-19T00:50:42.101Z,44.30
2023-01-19T00:51:42.115Z,46.00
2023-01-19T00:52:42.106Z,50.80
2023-01-19T00:53:42.091Z,44.30
2023-01-19T00:54:42.115Z,54.90
2023-01-19T00:55:42.067Z,48.10
2023-01-19T00:56:42.063Z,52.50
2023-01-19T00:57:42.065Z,47.80
2023-01-19T00:58:42.059Z,49.20
2023-01-19T00:59:42.067Z,47.90
2023-01-19T01:00:42.117Z,47.60
2023-01-19T01:01:45.198Z,46.80
2023-01-19T01:02:42.230Z,44.80
2023-01-19T01:03:42.023Z,44.40
2023-01-19T01:04:42.008Z,49.10
2023-01-19T01:05:41.998Z,43.70
2023-01-19T01:06:42.061Z,42.20
2023-01-19T01:07:41.996Z,46.20
2023-01-19T01:08:41.982Z,41.50
2023-01-19T01:09:42.018Z,46.00
2023-01-19T01:10:41.962Z,48.30
2023-01-19T01:11:41.990Z,41.50
2023-01-19T01:12:42.017Z,41.10
2023-01-19T01:13:42.978Z,43.00
2023-01-19T01:14:41.949Z,38.20
2023-01-19T01:15:41.971Z,43.30
2023-01-19T01:16:41.992Z,42.10
2023-01-19T01:17:41.958Z,36.80
2023-01-19T01:18:42.010Z,38.10
2023-01-19T01:19:41.937Z,39.90
2023-01-19T01:20:41.945Z,37.40
2023-01-19T01:21:41.950Z,39.80
2023-01-19T01:22:41.931Z,37.80
2023-01-19T01:23:41.929Z,36.30
2023-01-19T01:24:41.952Z,38.00
2023-01-19T01:25:41.895Z,36.80
2023-01-19T01:26:41.895Z,39.10
2023-01-19T01:27:41.894Z,38.80
2023-01-19T01:28:41.877Z,35.80
2023-01-19T01:29:41.874Z,42.30
2023-01-19T01:30:41.919Z,40.80
2023-01-19T01:31:41.909Z,43.20
2023-01-19T01:32:41.856Z,38.80
2023-01-19T01:33:42.095Z,44.20
2023-01-19T01:34:41.844Z,39.90
2023-01-19T01:35:41.822Z,42.20
2023-01-19T01:36:41.893Z,43.10
2023-01-19T01:37:41.810Z,45.70
2023-01-19T01:38:41.831Z,40.90
2023-01-19T01:39:41.804Z,41.30
2023-01-19T01:40:41.822Z,49.10
2023-01-19T01:41:41.781Z,46.30
2023-01-19T01:42:42.065Z,39.70
2023-01-19T01:43:41.799Z,39.50
2023-01-19T01:44:41.770Z,38.40
2023-01-19T01:46:02.863Z,36.10
2023-01-19T01:46:41.770Z,33.40
2023-01-19T01:47:41.759Z,35.30
2023-01-19T01:48:41.815Z,35.00
2023-01-19T01:49:41.727Z,35.60
2023-01-19T01:50:41.737Z,34.80
2023-01-19T01:51:41.729Z,38.50
2023-01-19T01:52:41.746Z,37.70
2023-01-19T01:53:41.710Z,32.70
2023-01-19T01:54:41.859Z,36.70
2023-01-19T01:55:41.699Z,34.10
2023-01-19T01:56:41.732Z,35.00
2023-01-19T01:57:41.687Z,33.40
2023-01-19T01:58:41.702Z,33.10
2023-01-19T01:59:41.692Z,35.70
2023-01-19T02:00:41.711Z,36.50
2023-01-19T02:01:41.764Z,33.50
2023-01-19T02:02:41.676Z,33.70
2023-01-19T02:03:41.714Z,34.40
2023-01-19T02:04:41.659Z,32.50
2023-01-19T02:05:41.628Z,32.60
2023-01-19T02:06:41.697Z,33.70
2023-01-19T02:07:41.651Z,34.00
2023-01-19T02:08:41.614Z,34.80
2023-01-19T02:09:41.639Z,37.90
2023-01-19T02:10:41.627Z,39.20
2023-01-19T02:11:41.619Z,35.50
2023-01-19T02:12:41.674Z,36.80
2023-01-19T02:13:41.602Z,36.30
2023-01-19T02:14:41.588Z,33.30
2023-01-19T02:15:41.583Z,36.20
2023-01-19T02:16:41.588Z,34.50
2023-01-19T02:17:41.581Z,32.30
2023-01-19T02:18:41.605Z,35.20
2023-01-19T02:19:41.541Z,31.10
2023-01-19T02:20:41.568Z,32.50
2023-01-19T02:21:41.535Z,35.90
2023-01-19T02:22:41.525Z,32.90
2023-01-19T02:23:41.553Z,34.50
2023-01-19T02:24:41.574Z,33.70
2023-01-19T02:25:41.511Z,29.00
2023-01-19T02:26:41.504Z,32.70
2023-01-19T02:27:41.509Z,36.20
2023-01-19T02:28:41.462Z,33.90
2023-01-19T02:29:41.508Z,33.00
2023-01-19T02:30:41.561Z,31.40
2023-01-19T02:31:41.483Z,34.60
2023-01-19T02:32:41.470Z,35.00
2023-01-19T02:33:41.458Z,31.00
2023-01-19T02:34:41.453Z,29.80
2023-01-19T02:35:41.497Z,31.20
2023-01-19T02:36:41.473Z,29.90
2023-01-19T02:37:41.507Z,29.20
2023-01-19T02:38:41.428Z,33.40
2023-01-19T02:39:41.443Z,32.90
2023-01-19T02:40:41.411Z,31.60
2023-01-19T02:41:41.409Z,34.10
2023-01-19T02:42:41.906Z,30.00
2023-01-19T02:43:41.415Z,29.60
2023-01-19T02:44:41.389Z,27.70
2023-01-19T02:45:41.381Z,29.20
2023-01-19T02:46:41.380Z,27.40
2023-01-19T02:47:41.356Z,28.10
2023-01-19T02:48:41.404Z,25.60
2023-01-19T02:49:41.365Z,28.60
2023-01-19T02:50:41.337Z,28.00
2023-01-19T02:51:41.335Z,25.00
2023-01-19T02:52:41.333Z,27.20
2023-01-19T02:53:41.342Z,30.80
2023-01-19T02:54:41.366Z,30.40
2023-01-19T02:55:41.290Z,28.60
2023-01-19T02:56:41.307Z,28.00
2023-01-19T02:57:41.302Z,24.20
2023-01-19T02:58:41.296Z,25.00
2023-01-19T02:59:41.295Z,28.90
2023-01-19T03:00:41.346Z,26.80
2023-01-19T03:01:41.380Z,29.90
2023-01-19T03:02:41.275Z,25.30
2023-01-19T03:03:41.262Z,29.10
2023-01-19T03:04:41.263Z,28.20
2023-01-19T03:05:41.240Z,26.10
2023-01-19T03:06:41.306Z,23.10
2023-01-19T03:07:41.237Z,23.40
2023-01-19T03:08:41.223Z,27.10
2023-01-19T03:09:41.237Z,23.90
2023-01-19T03:10:41.209Z,25.60
2023-01-19T03:11:41.210Z,29.50
2023-01-19T03:12:41.329Z,28.90
2023-01-19T03:13:41.190Z,24.90
2023-01-19T03:14:41.228Z,27.00
2023-01-19T03:15:41.245Z,29.50
2023-01-19T03:16:41.246Z,27.80
2023-01-19T03:17:41.147Z,26.60
2023-01-19T03:18:41.204Z,30.20
2023-01-19T03:19:41.166Z,29.30
2023-01-19T03:20:41.145Z,27.50
2023-01-19T03:21:41.158Z,27.60
2023-01-19T03:22:41.134Z,31.70
2023-01-19T03:23:41.139Z,28.50
2023-01-19T03:24:41.197Z,25.90
2023-01-19T03:25:41.107Z,29.70
2023-01-19T03:26:41.108Z,32.10
2023-01-19T03:27:41.164Z,27.40
2023-01-19T03:28:41.143Z,30.80
2023-01-19T03:29:41.097Z,28.60
2023-01-19T03:30:41.202Z,31.80
2023-01-19T03:31:41.101Z,31.80
2023-01-19T03:32:41.095Z,27.90
2023-01-19T03:33:41.046Z,34.60
2023-01-19T03:34:41.069Z,30.30
2023-01-19T03:35:41.063Z,31.10
2023-01-19T03:36:41.074Z,30.30
2023-01-19T03:37:41.054Z,30.90
2023-01-19T03:38:41.033Z,33.30
2023-01-19T03:39:41.059Z,29.60
2023-01-19T03:40:41.019Z,31.60
2023-01-19T03:41:41.015Z,29.50
2023-01-19T03:42:41.068Z,30.10
2023-01-19T03:43:41.071Z,32.30
2023-01-19T03:44:41.019Z,32.90
2023-01-19T03:45:40.994Z,29.90
2023-01-19T03:46:40.979Z,30.40
2023-01-19T03:47:51.108Z,31.50
2023-01-19T03:48:42.959Z,32.30
2023-01-19T03:49:40.963Z,33.30
2023-01-19T03:50:40.941Z,31.40
2023-01-19T03:51:40.965Z,31.00
2023-01-19T03:52:40.953Z,30.40
2023-01-19T03:53:40.920Z,35.70
2023-01-19T03:54:40.954Z,32.90
2023-01-19T03:55:40.899Z,35.20
2023-01-19T03:56:40.911Z,35.50
2023-01-19T03:57:40.912Z,34.20
2023-01-19T03:58:40.901Z,37.10
2023-01-19T03:59:40.878Z,34.80
2023-01-19T04:00:40.925Z,35.20
2023-01-19T04:01:40.990Z,35.40
2023-01-19T04:02:40.918Z,32.60
2023-01-19T04:03:40.861Z,32.70
2023-01-19T04:04:40.846Z,36.00
2023-01-19T04:05:40.835Z,39.20
2023-01-19T04:06:40.886Z,41.20
2023-01-19T04:07:40.849Z,40.00
2023-01-19T04:08:40.840Z,39.70
2023-01-19T04:09:40.794Z,38.80
2023-01-19T04:10:40.805Z,41.10
2023-01-19T04:11:40.821Z,39.30
2023-01-19T04:12:40.845Z,41.90
2023-01-19T04:13:40.786Z,40.60
2023-01-19T04:14:40.792Z,38.90
2023-01-19T04:15:40.793Z,40.40
2023-01-19T04:16:40.781Z,41.80
2023-01-19T04:17:40.796Z,42.60
2023-01-19T04:18:40.829Z,42.80
2023-01-19T04:19:40.780Z,45.30
2023-01-19T04:20:40.743Z,48.00
2023-01-19T04:21:40.763Z,35.80
2023-01-19T04:22:40.753Z,46.10
2023-01-19T04:23:40.739Z,44.80
2023-01-19T04:24:40.780Z,46.20
2023-01-19T04:25:40.721Z,43.20
2023-01-19T04:26:40.712Z,43.80
2023-01-19T04:27:40.714Z,42.50
2023-01-19T04:28:40.715Z,45.20
2023-01-19T04:29:40.683Z,46.40
2023-01-19T04:30:40.745Z,44.30
2023-01-19T04:31:40.662Z,44.30
2023-01-19T04:32:40.692Z,42.90
2023-01-19T04:33:40.671Z,39.00
2023-01-19T04:34:40.661Z,38.50
2023-01-19T04:35:40.648Z,39.50
2023-01-19T04:36:40.698Z,38.90
2023-01-19T04:37:40.611Z,42.00
2023-01-19T04:38:40.628Z,37.90
2023-01-19T04:39:40.648Z,34.20
2023-01-19T04:40:40.677Z,30.10
2023-01-19T04:41:40.620Z,36.10
2023-01-19T04:42:40.679Z,32.20
2023-01-19T04:43:40.607Z,29.90
2023-01-19T04:44:40.607Z,28.60
2023-01-19T04:45:40.644Z,30.10
2023-01-19T04:46:40.619Z,31.10
2023-01-19T04:47:40.577Z,31.10
2023-01-19T04:48:41.395Z,29.90
2023-01-19T04:49:40.532Z,30.40
2023-01-19T04:50:40.561Z,32.70
2023-01-19T04:51:40.546Z,29.70
2023-01-19T04:52:40.561Z,34.00
2023-01-19T04:53:40.557Z,32.80
2023-01-19T04:54:40.830Z,34.50
2023-01-19T04:55:40.530Z,29.60
2023-01-19T04:56:40.509Z,29.80
2023-01-19T04:57:40.489Z,28.80
2023-01-19T04:58:40.501Z,28.00
2023-01-19T04:59:40.499Z,30.50
2023-01-19T05:00:40.545Z,29.10
2023-01-19T05:01:40.472Z,31.60
2023-01-19T05:02:40.497Z,32.00
2023-01-19T05:03:40.475Z,28.40
2023-01-19T05:04:40.433Z,27.60
2023-01-19T05:05:40.474Z,29.40
2023-01-19T05:06:40.591Z,30.50
2023-01-19T05:07:40.442Z,29.50
2023-01-19T05:08:40.408Z,30.50
2023-01-19T05:09:40.436Z,27.70
2023-01-19T05:10:40.401Z,24.70
2023-01-19T05:11:40.384Z,27.50
2023-01-19T05:12:40.473Z,30.10
2023-01-19T05:13:40.432Z,28.70
2023-01-19T05:14:40.411Z,26.60
2023-01-19T05:15:40.356Z,27.50
2023-01-19T05:16:40.361Z,30.00
2023-01-19T05:17:40.391Z,30.30
2023-01-19T05:18:40.386Z,33.50
2023-01-19T05:19:40.350Z,28.30
2023-01-19T05:20:40.354Z,29.50
2023-01-19T05:21:40.331Z,26.90
2023-01-19T05:22:40.305Z,31.00
2023-01-19T05:23:40.336Z,28.20
2023-01-19T05:24:40.375Z,30.10
2023-01-19T05:25:40.322Z,28.50
2023-01-19T05:26:40.307Z,29.30
2023-01-19T05:27:40.330Z,28.70
2023-01-19T05:28:40.301Z,26.10
2023-01-19T05:29:40.272Z,32.20
2023-01-19T05:30:40.362Z,24.40
2023-01-19T05:31:40.275Z,27.30
2023-01-19T05:32:40.283Z,26.80
2023-01-19T05:33:40.256Z,27.10
2023-01-19T05:34:40.245Z,26.20
2023-01-19T05:35:40.275Z,27.40
2023-01-19T05:36:40.263Z,27.10
2023-01-19T05:37:40.236Z,29.20
2023-01-19T05:38:40.214Z,28.00
2023-01-19T05:39:40.225Z,28.10
2023-01-19T05:40:40.209Z,28.80
2023-01-19T05:41:40.203Z,28.70
2023-01-19T05:42:40.283Z,28.80
2023-01-19T05:43:40.191Z,27.50
2023-01-19T05:44:40.189Z,29.80
2023-01-19T05:45:40.186Z,29.40
2023-01-19T05:46:40.208Z,28.80
2023-01-19T05:47:40.178Z,28.70
2023-01-19T05:48:40.177Z,28.20
2023-01-19T05:49:40.121Z,35.60
2023-01-19T05:50:40.131Z,31.30
2023-01-19T05:51:40.119Z,32.90
2023-01-19T05:52:40.100Z,30.70
2023-01-19T05:53:40.110Z,29.10
2023-01-19T05:54:40.137Z,31.10
2023-01-19T05:55:40.085Z,32.50
2023-01-19T05:56:40.090Z,33.00
2023-01-19T05:57:40.100Z,29.80
2023-01-19T05:58:40.064Z,33.20
2023-01-19T05:59:40.065Z,30.50
2023-01-19T06:00:40.416Z,33.50
2023-01-19T06:01:40.517Z,30.40
2023-01-19T06:02:40.046Z,31.70
2023-01-19T06:03:40.049Z,30.70
2023-01-19T06:04:40.017Z,35.00
2023-01-19T06:05:40.036Z,32.60
2023-01-19T06:06:40.067Z,35.10
2023-01-19T06:07:39.997Z,28.50
2023-01-19T06:08:39.981Z,34.40
2023-01-19T06:09:40.000Z,30.60
2023-01-19T06:10:39.992Z,32.70
2023-01-19T06:11:39.987Z,32.30
2023-01-19T06:12:40.087Z,33.10
2023-01-19T06:13:41.370Z,30.90
2023-01-19T06:14:39.960Z,30.80
2023-01-19T06:15:39.965Z,30.30
2023-01-19T06:16:39.985Z,33.90
2023-01-19T06:17:39.938Z,39.70
2023-01-19T06:18:41.958Z,30.50
2023-01-19T06:19:39.975Z,31.20
2023-01-19T06:20:39.914Z,26.00
2023-01-19T06:21:39.921Z,27.70
2023-01-19T06:22:39.907Z,30.40
2023-01-19T06:23:39.889Z,30.80
2023-01-19T06:24:39.921Z,29.30
2023-01-19T06:25:39.886Z,29.40
2023-01-19T06:26:39.874Z,29.10
2023-01-19T06:27:39.885Z,32.20
2023-01-19T06:28:39.872Z,32.70
2023-01-19T06:29:39.872Z,29.80
2023-01-19T06:30:39.958Z,31.40
2023-01-19T06:31:39.899Z,30.80
2023-01-19T06:32:39.850Z,30.40
2023-01-19T06:33:39.842Z,30.00
2023-01-19T06:34:39.844Z,31.20
2023-01-19T06:35:39.824Z,27.80
2023-01-19T06:36:39.921Z,32.50
2023-01-19T06:37:39.804Z,33.10
2023-01-19T06:38:39.807Z,28.20
2023-01-19T06:39:39.798Z,32.00
2023-01-19T06:40:39.791Z,31.10
2023-01-19T06:41:39.779Z,30.60
2023-01-19T06:42:39.840Z,30.10
2023-01-19T06:43:39.764Z,28.40
2023-01-19T06:44:39.761Z,28.60
2023-01-19T06:45:39.773Z,30.20
2023-01-19T06:46:39.743Z,31.00
2023-01-19T06:47:39.739Z,24.50
2023-01-19T06:48:39.799Z,30.00
2023-01-19T06:49:39.735Z,27.50
2023-01-19T06:50:39.716Z,28.30
2023-01-19T06:51:39.731Z,27.10
2023-01-19T06:52:39.698Z,27.60
2023-01-19T06:53:39.702Z,29.20
2023-01-19T06:54:39.732Z,29.90
2023-01-19T06:55:39.722Z,27.00
2023-01-19T06:56:39.681Z,29.10
2023-01-19T06:57:39.651Z,27.90
2023-01-19T06:58:39.657Z,30.20
2023-01-19T06:59:39.668Z,22.50
2023-01-19T07:00:39.700Z,27.20
2023-01-19T07:01:39.753Z,27.20
2023-01-19T07:02:39.759Z,24.40
2023-01-19T07:03:39.621Z,25.30
2023-01-19T07:04:39.640Z,27.90
2023-01-19T07:05:39.617Z,23.30
2023-01-19T07:06:39.895Z,25.40
2023-01-19T07:07:39.649Z,25.30
2023-01-19T07:08:39.578Z,21.90
2023-01-19T07:09:39.617Z,25.00
2023-01-19T07:11:24.590Z,23.70
2023-01-19T07:11:40.622Z,23.70
2023-01-19T07:12:39.565Z,26.40
2023-01-19T07:13:39.573Z,22.30
2023-01-19T07:14:39.551Z,24.70
2023-01-19T07:15:39.592Z,25.10
2023-01-19T07:16:39.539Z,22.80
2023-01-19T07:17:39.607Z,24.40
2023-01-19T07:18:39.536Z,25.90
2023-01-19T07:19:39.522Z,25.60
2023-01-19T07:20:39.490Z,25.10
2023-01-19T07:21:39.516Z,22.40
2023-01-19T07:22:39.505Z,24.20
2023-01-19T07:23:39.529Z,24.80
2023-01-19T07:24:39.496Z,26.80
2023-01-19T07:25:39.490Z,23.00
2023-01-19T07:26:39.456Z,25.10
2023-01-19T07:27:39.462Z,21.60
2023-01-19T07:28:39.466Z,23.20
2023-01-19T07:29:39.511Z,26.60
2023-01-19T07:30:39.494Z,22.60
2023-01-19T07:31:39.532Z,23.10
2023-01-19T07:32:39.422Z,23.30
2023-01-19T07:33:39.425Z,23.10
2023-01-19T07:34:39.414Z,21.20
2023-01-19T07:35:39.469Z,22.70
2023-01-19T07:36:39.389Z,21.50
2023-01-19T07:37:39.404Z,22.90
2023-01-19T07:38:39.407Z,22.10
2023-01-19T07:39:39.369Z,24.40
2023-01-19T07:40:39.385Z,25.80
2023-01-19T07:41:39.421Z,20.80
2023-01-19T07:42:39.375Z,22.40
2023-01-19T07:43:39.337Z,23.90
2023-01-19T07:44:39.381Z,21.00
2023-01-19T07:45:39.370Z,25.00
2023-01-19T07:46:39.333Z,23.50
2023-01-19T07:47:39.396Z,25.50
2023-01-19T07:48:39.344Z,23.30
2023-01-19T07:49:39.349Z,22.80
2023-01-19T07:50:39.307Z,21.20
2023-01-19T07:51:39.330Z,22.60
2023-01-19T07:52:39.274Z,26.30
2023-01-19T07:53:39.375Z,25.10
2023-01-19T07:54:39.292Z,23.20
2023-01-19T07:55:39.280Z,22.20
2023-01-19T07:56:39.273Z,23.70
2023-01-19T07:57:39.273Z,24.70
2023-01-19T07:58:39.263Z,26.10
2023-01-19T07:59:39.290Z,24.10
2023-01-19T08:00:39.245Z,24.80
2023-01-19T08:01:39.330Z,20.50
2023-01-19T08:02:39.201Z,20.70
2023-01-19T08:03:39.208Z,21.80
2023-01-19T08:04:39.205Z,24.60
2023-01-19T08:05:39.285Z,23.60
2023-01-19T08:06:39.198Z,24.90
2023-01-19T08:07:39.211Z,23.50
2023-01-19T08:08:39.174Z,26.80
2023-01-19T08:09:39.175Z,21.70
2023-01-19T08:10:39.164Z,25.70
2023-01-19T08:11:39.580Z,22.90
2023-01-19T08:12:39.144Z,24.90
2023-01-19T08:13:39.152Z,26.20
2023-01-19T08:14:39.153Z,23.90
2023-01-19T08:15:39.173Z,22.50
2023-01-19T08:16:39.103Z,23.90
2023-01-19T08:17:39.217Z,23.70
2023-01-19T08:18:39.091Z,24.10
2023-01-19T08:19:41.362Z,23.40
2023-01-19T08:20:39.104Z,27.60
2023-01-19T08:21:39.148Z,24.50
2023-01-19T08:22:39.082Z,23.70
2023-01-19T08:23:39.204Z,25.40
2023-01-19T08:24:39.055Z,25.60
2023-01-19T08:25:39.064Z,34.10
2023-01-19T08:26:39.047Z,24.90
2023-01-19T08:27:39.031Z,29.20
2023-01-19T08:28:39.025Z,24.40
2023-01-19T08:29:39.086Z,26.80
2023-01-19T08:30:39.053Z,30.50
2023-01-19T08:31:39.147Z,25.30
2023-01-19T08:32:39.031Z,26.40
2023-01-19T08:33:38.995Z,27.30
2023-01-19T08:34:39.007Z,24.80
2023-01-19T08:35:39.016Z,30.40
2023-01-19T08:36:38.996Z,24.50
2023-01-19T08:37:38.987Z,25.90
2023-01-19T08:38:38.965Z,28.70
2023-01-19T08:39:38.952Z,30.10
2023-01-19T08:40:38.967Z,27.00
2023-01-19T08:41:39.033Z,25.40
2023-01-19T08:42:38.973Z,30.00
2023-01-19T08:43:38.925Z,30.80
2023-01-19T08:44:43.872Z,25.10
2023-01-19T08:45:39.904Z,25.60
2023-01-19T08:46:38.923Z,28.30
2023-01-19T08:47:38.996Z,28.10
2023-01-19T08:48:39.984Z,25.20
2023-01-19T08:49:38.892Z,30.30
2023-01-19T08:50:38.913Z,28.00
2023-01-19T08:51:38.882Z,25.90
2023-01-19T08:52:38.858Z,26.00
2023-01-19T08:53:38.881Z,28.00
2023-01-19T08:54:38.855Z,25.40
2023-01-19T08:55:38.867Z,25.20
2023-01-19T08:56:38.823Z,23.80
2023-01-19T08:57:38.818Z,25.30
2023-01-19T08:58:38.827Z,25.20
2023-01-19T08:59:38.863Z,26.00
2023-01-19T09:00:38.787Z,26.50
2023-01-19T09:01:38.976Z,31.00
2023-01-19T09:02:38.889Z,27.30
2023-01-19T09:03:38.799Z,26.00
2023-01-19T09:04:38.774Z,28.40
2023-01-19T09:05:38.880Z,35.10
2023-01-19T09:06:38.758Z,31.40
2023-01-19T09:07:38.753Z,31.20
2023-01-19T09:08:38.776Z,26.30
2023-01-19T09:09:38.775Z,29.30
2023-01-19T09:10:38.735Z,25.50
2023-01-19T09:11:38.787Z,30.20
2023-01-19T09:12:38.715Z,32.80
2023-01-19T09:13:38.706Z,32.10
2023-01-19T09:14:38.711Z,30.40
2023-01-19T09:15:38.705Z,34.50
2023-01-19T09:16:38.700Z,31.90
2023-01-19T09:17:39.017Z,33.60
2023-01-19T09:18:38.680Z,33.10
2023-01-19T09:19:38.677Z,35.60
2023-01-19T09:20:38.670Z,34.60
2023-01-19T09:21:38.654Z,36.90
2023-01-19T09:22:38.649Z,32.40
2023-01-19T09:23:38.691Z,32.30
2023-01-19T09:24:38.649Z,32.00
2023-01-19T09:25:38.620Z,35.40
2023-01-19T09:26:38.615Z,37.20
2023-01-19T09:27:38.626Z,42.20
2023-01-19T09:28:38.618Z,35.50
2023-01-19T09:29:38.672Z,40.00
2023-01-19T09:30:38.631Z,38.30
2023-01-19T09:31:38.670Z,38.10
2023-01-19T09:32:38.586Z,40.50
2023-01-19T09:33:38.589Z,43.60
2023-01-19T09:34:38.583Z,41.90
2023-01-19T09:35:38.647Z,44.10
2023-01-19T09:36:38.556Z,41.80
2023-01-19T09:37:38.554Z,41.50
2023-01-19T09:38:38.537Z,38.40
2023-01-19T09:39:38.611Z,38.30
2023-01-19T09:40:39.447Z,38.80
2023-01-19T09:41:38.583Z,34.90
2023-01-19T09:42:38.518Z,37.30
2023-01-19T09:43:38.519Z,36.70
2023-01-19T09:44:38.499Z,37.80
2023-01-19T09:45:38.491Z,40.90
2023-01-19T09:46:38.521Z,39.60
2023-01-19T09:47:38.538Z,38.90
2023-01-19T09:48:38.491Z,38.40
2023-01-19T09:49:38.493Z,38.40
2023-01-19T09:50:38.465Z,37.90
2023-01-19T09:51:38.556Z,45.80
2023-01-19T09:52:38.456Z,36.90
2023-01-19T09:53:38.490Z,40.80
2023-01-19T09:54:38.436Z,37.60
2023-01-19T09:55:38.426Z,38.90
2023-01-19T09:56:38.419Z,39.00
2023-01-19T09:57:38.421Z,37.60
2023-01-19T09:58:38.420Z,38.20
2023-01-19T09:59:38.451Z,39.80
2023-01-19T10:00:38.449Z,41.90
2023-01-19T10:01:38.446Z,45.20
2023-01-19T10:02:38.399Z,37.10
2023-01-19T10:03:38.378Z,43.80
2023-01-19T10:04:38.373Z,38.80
2023-01-19T10:05:38.415Z,35.00
2023-01-19T10:06:38.351Z,36.10
2023-01-19T10:07:38.348Z,37.20
2023-01-19T10:08:38.340Z,42.70
2023-01-19T10:09:38.333Z,36.10
2023-01-19T10:10:38.326Z,43.40
2023-01-19T10:11:51.895Z,46.70
2023-01-19T10:12:39.317Z,37.20
2023-01-19T10:13:38.317Z,36.70
2023-01-19T10:14:38.339Z,38.00
2023-01-19T10:15:38.289Z,40.80
2023-01-19T10:16:38.270Z,30.60
2023-01-19T10:17:38.586Z,34.50
2023-01-19T10:18:38.271Z,37.80
2023-01-19T10:19:38.302Z,37.60
2023-01-19T10:20:38.237Z,37.90
2023-01-19T10:21:38.256Z,38.50
2023-01-19T10:22:38.251Z,35.80
2023-01-19T10:23:38.284Z,31.20
2023-01-19T10:24:38.246Z,31.50
2023-01-19T10:25:38.305Z,36.40
2023-01-19T10:26:38.224Z,31.90
2023-01-19T10:27:38.229Z,31.30
2023-01-19T10:28:38.222Z,30.30
2023-01-19T10:29:38.259Z,31.60
2023-01-19T10:30:38.217Z,30.30
2023-01-19T10:31:38.265Z,29.60
2023-01-19T10:32:38.197Z,29.60
2023-01-19T10:33:38.219Z,27.70
2023-01-19T10:34:38.148Z,29.30
2023-01-19T10:35:38.200Z,25.70
2023-01-19T10:36:38.136Z,29.90
2023-01-19T10:37:38.117Z,25.80
2023-01-19T10:38:38.127Z,25.70
2023-01-19T10:39:38.899Z,23.30
2023-01-19T10:40:38.123Z,25.70
2023-01-19T10:41:38.207Z,23.20
2023-01-19T10:42:38.170Z,23.70
2023-01-19T10:43:38.133Z,23.80
2023-01-19T10:44:38.126Z,21.30
2023-01-19T10:45:38.099Z,26.20
2023-01-19T10:46:38.127Z,19.80
2023-01-19T10:47:38.162Z,24.50
2023-01-19T10:48:38.110Z,26.90
2023-01-19T10:49:38.127Z,21.80
2023-01-19T10:50:38.066Z,28.60
2023-01-19T10:51:38.087Z,24.90
2023-01-19T10:52:38.028Z,27.60
2023-01-19T10:53:38.142Z,31.80
2023-01-19T10:54:38.038Z,19.30
2023-01-19T10:55:38.178Z,24.90
2023-01-19T10:56:37.999Z,21.90
2023-01-19T10:57:38.079Z,20.20
2023-01-19T10:58:37.982Z,23.00
2023-01-19T10:59:38.091Z,26.70
2023-01-19T11:00:38.158Z,22.50
2023-01-19T11:01:38.246Z,22.00
2023-01-19T11:02:38.045Z,21.20
2023-01-19T11:03:37.961Z,22.00
2023-01-19T11:04:37.939Z,21.00
2023-01-19T11:05:38.016Z,17.60
2023-01-19T11:06:37.925Z,21.30
2023-01-19T11:07:37.935Z,22.70
2023-01-19T11:08:37.924Z,24.40
2023-01-19T11:09:37.929Z,19.80
2023-01-19T11:10:37.905Z,18.80
2023-01-19T11:11:37.931Z,21.50
2023-01-19T11:12:37.956Z,19.20
2023-01-19T11:13:37.904Z,20.50
2023-01-19T11:14:37.860Z,15.00
2023-01-19T11:15:37.856Z,19.70
2023-01-19T11:16:37.921Z,17.10
2023-01-19T11:17:37.877Z,18.70
2023-01-19T11:18:37.856Z,21.20
2023-01-19T11:19:37.811Z,18.10
2023-01-19T11:20:37.828Z,18.70
2023-01-19T11:21:37.859Z,17.10
2023-01-19T11:22:37.858Z,16.00
2023-01-19T11:23:38.354Z,14.50
2023-01-19T11:24:37.807Z,14.10
2023-01-19T11:25:37.900Z,14.70
2023-01-19T11:26:37.827Z,13.80
2023-01-19T11:27:37.800Z,13.10
2023-01-19T11:28:37.816Z,14.90
2023-01-19T11:29:37.819Z,17.20
2023-01-19T11:30:37.793Z,18.40
2023-01-19T11:31:37.780Z,13.70
2023-01-19T11:32:37.747Z,17.10
2023-01-19T11:33:37.834Z,12.10
2023-01-19T11:34:37.768Z,13.60
2023-01-19T11:35:37.786Z,15.80
2023-01-19T11:36:37.730Z,14.90
2023-01-19T11:37:37.738Z,13.60
2023-01-19T11:38:37.760Z,15.60
2023-01-19T11:39:37.715Z,11.90
2023-01-19T11:40:37.688Z,12.50
2023-01-19T11:41:37.793Z,14.40
2023-01-19T11:42:37.708Z,15.30
2023-01-19T11:43:48.525Z,13.50
2023-01-19T11:44:38.643Z,13.10
2023-01-19T11:45:37.677Z,18.30
2023-01-19T11:46:37.664Z,16.10
2023-01-19T11:47:37.734Z,18.40
2023-01-19T11:48:37.728Z,14.90
2023-01-19T11:49:37.735Z,17.70
2023-01-19T11:50:37.669Z,15.60
2023-01-19T11:51:37.640Z,13.40
2023-01-19T11:52:37.631Z,16.70
2023-01-19T11:53:37.667Z,16.20
2023-01-19T11:54:37.628Z,15.10
2023-01-19T11:55:37.610Z,15.80
2023-01-19T11:56:37.591Z,14.90
2023-01-19T11:57:37.600Z,14.90
2023-01-19T11:58:37.611Z,13.40
2023-01-19T11:59:37.606Z,15.40
2023-01-19T12:00:37.670Z,16.30
2023-01-19T12:01:37.552Z,12.80
2023-01-19T12:02:37.547Z,14.80
2023-01-19T12:03:37.557Z,15.50
2023-01-19T12:04:37.550Z,13.50
2023-01-19T12:05:37.623Z,13.70
2023-01-19T12:06:37.567Z,14.80
2023-01-19T12:07:37.523Z,16.70
2023-01-19T12:08:37.503Z,13.80
2023-01-19T12:09:37.508Z,13.30
2023-01-19T12:10:37.506Z,17.60
2023-01-19T12:11:37.550Z,14.60
2023-01-19T12:12:37.456Z,15.30
2023-01-19T12:13:37.467Z,14.80
2023-01-19T12:14:37.446Z,17.30
2023-01-19T12:15:37.447Z,16.00
2023-01-19T12:16:37.525Z,14.80
2023-01-19T12:17:37.545Z,17.10
2023-01-19T12:18:37.459Z,15.90
2023-01-19T12:19:37.546Z,19.10
2023-01-19T12:20:37.455Z,15.30
2023-01-19T12:21:37.427Z,15.50
2023-01-19T12:22:37.402Z,14.70
2023-01-19T12:23:37.503Z,12.60
2023-01-19T12:24:37.457Z,17.90
2023-01-19T12:25:37.401Z,19.10
2023-01-19T12:26:37.401Z,17.00
2023-01-19T12:27:37.362Z,17.60
2023-01-19T12:28:37.420Z,17.10
2023-01-19T12:29:37.681Z,15.80
2023-01-19T12:30:37.524Z,15.20
2023-01-19T12:31:37.502Z,18.10
2023-01-19T12:32:37.344Z,15.80
2023-01-19T12:33:37.339Z,15.50
2023-01-19T12:34:37.353Z,13.70
2023-01-19T12:35:37.386Z,16.90
2023-01-19T12:36:37.328Z,17.80
2023-01-19T12:37:37.337Z,15.00
2023-01-19T12:38:37.318Z,16.40
2023-01-19T12:39:37.375Z,18.40
2023-01-19T12:40:37.321Z,19.30
2023-01-19T12:41:37.336Z,18.40
2023-01-19T12:42:37.347Z,15.30
2023-01-19T12:43:37.295Z,16.10
2023-01-19T12:44:37.248Z,15.40
2023-01-19T12:45:37.421Z,15.30
2023-01-19T12:46:37.278Z,15.10
2023-01-19T12:47:37.731Z,17.90
2023-01-19T12:48:37.216Z,16.70
2023-01-19T12:49:37.201Z,18.80
2023-01-19T12:50:37.200Z,15.80
2023-01-19T12:51:37.255Z,17.90
2023-01-19T12:52:37.208Z,21.10